Time;durP1;ratioP1;P1;durP2;ratioP2;P2;SDS_P1;SDS_P2;PMS_P1;PMS_P2;Temp;Humidity;BMP_temperature;BMP_pressure;BME280_temperature;BME280_humidity;BME280_pressure;Samples;Min_cycle;Max_cycle;Signal;HPM_P1;HPM_P2
2023/06/05 16:33:55;;;;;;;8.30;4.80;;;;;;;22.74;42.80;99264.61;264007;1289;546044;-85
2023/06/05 16:39:58;;;;;;;12.50;4.20;;;;;;;22.51;43.28;99266.58;263397;1280;10001564;-86
2023/06/05 16:46:02;;;;;;;5.90;4.00;;;;;;;22.34;43.41;99265.77;267619;1280;5575042;-85
2023/06/05 16:52:04;;;;;;;9.30;3.90;;;;;;;22.16;43.69;99260.36;272013;1267;23082;-84
2023/06/05 16:58:06;;;;;;;8.60;3.70;;;;;;;22.01;43.96;99254.28;272167;1278;22515;-85
2023/06/05 17:04:08;;;;;;;7.30;3.50;;;;;;;21.90;44.31;99255.36;272135;1274;22249;-85
2023/06/05 17:10:12;;;;;;;7.10;3.50;;;;;;;21.79;44.39;99255.76;272046;1270;22566;-85
2023/06/05 17:16:14;;;;;;;10.60;3.60;;;;;;;21.68;44.94;99250.41;271947;1278;22421;-85
2023/06/05 17:23:03;;;;;;;10.40;3.30;;;;;;;21.59;45.06;99249.96;271955;1278;22212;-85
2023/06/05 17:29:16;;;;;;;6.30;3.10;;;;;;;21.49;45.17;99249.30;272154;1279;23336;-85
2023/06/05 17:35:19;;;;;;;10.70;3.30;;;;;;;21.40;45.46;99248.28;271969;1274;23272;-84
2023/06/05 17:41:21;;;;;;;5.40;2.70;;;;;;;21.32;45.88;99248.11;271924;1271;22514;-85
2023/06/05 17:47:23;;;;;;;5.50;3.60;;;;;;;21.25;46.28;99248.39;271866;1275;22936;-85
2023/06/05 17:53:25;;;;;;;9.30;3.70;;;;;;;21.17;46.33;99247.89;271918;1275;25024;-84
2023/06/05 17:59:30;;;;;;;6.20;4.30;;;;;;;21.05;46.55;99242.67;271859;1266;23866;-84
2023/06/05 18:05:34;;;;;;;11.30;4.90;;;;;;;20.91;46.91;99239.84;271673;1275;23871;-84
2023/06/05 18:11:48;;;;;;;13.00;5.40;;;;;;;20.80;47.04;99238.08;273115;1262;23634;-84
2023/06/05 18:17:50;;;;;;;11.80;4.10;;;;;;;20.69;47.54;99239.08;273075;1267;22317;-84
2023/06/05 18:23:53;;;;;;;7.40;3.90;;;;;;;20.60;48.04;99243.91;272746;1266;23767;-84
2023/06/05 18:29:55;;;;;;;8.30;3.60;;;;;;;20.49;48.45;99250.23;273034;1266;22270;-85
2023/06/05 18:35:57;;;;;;;11.90;4.00;;;;;;;20.38;48.87;99253.67;273305;1266;23173;-84
2023/06/05 18:42:17;;;;;;;5.50;3.50;;;;;;;20.28;49.11;99261.32;273846;1267;22199;-84
2023/06/05 18:48:19;;;;;;;6.70;3.50;;;;;;;20.16;49.04;99266.98;273532;1266;22531;-84
2023/06/05 18:54:41;;;;;;;5.30;3.20;;;;;;;20.05;49.78;99273.08;271591;1265;23797;-84
2023/06/05 19:00:51;;;;;;;7.20;3.80;;;;;;;19.93;50.26;99277.64;271246;1266;22627;-83
2023/06/05 19:07:36;;;;;;;7.20;3.40;;;;;;;19.81;50.77;99284.23;272403;1265;22188;-84
2023/06/05 19:13:41;;;;;;;8.00;4.00;;;;;;;19.72;50.80;99291.52;273717;1265;22483;-84
2023/06/05 19:19:57;;;;;;;10.40;3.80;;;;;;;19.72;50.73;99295.39;273911;1266;22223;-84
2023/06/05 19:26:08;;;;;;;14.50;3.90;;;;;;;19.77;50.59;99292.27;273918;1265;22203;-83
2023/06/05 19:32:49;;;;;;;15.90;4.90;;;;;;;19.78;50.53;99294.08;273927;1265;23284;-83
2023/06/05 19:39:16;;;;;;;10.70;5.00;;;;;;;19.79;50.72;99295.01;273839;1265;22481;-84
2023/06/05 19:45:19;;;;;;;8.10;5.20;;;;;;;19.76;50.90;99289.36;273929;1266;22438;-83
2023/06/05 19:51:53;;;;;;;7.60;4.30;;;;;;;19.71;50.98;99290.02;273700;1265;22355;-84
2023/06/05 19:57:56;;;;;;;8.40;4.80;;;;;;;19.65;51.20;99291.11;273977;1265;22405;-83
2023/06/05 20:04:07;;;;;;;8.50;4.80;;;;;;;19.56;51.45;99288.35;273891;1265;22434;-83
2023/06/05 20:10:09;;;;;;;13.50;5.20;;;;;;;19.47;51.61;99289.73;273913;1265;22287;-84
2023/06/05 20:16:33;;;;;;;11.10;5.30;;;;;;;19.37;52.03;99294.20;273994;1262;23011;-84
2023/06/05 20:22:44;;;;;;;15.10;6.00;;;;;;;19.27;52.33;99292.80;273708;1265;23173;-86
2023/06/05 20:28:49;;;;;;;13.10;5.70;;;;;;;19.17;52.75;99289.34;273405;1265;22458;-84
2023/06/05 20:34:51;;;;;;;13.10;5.90;;;;;;;19.07;53.03;99285.63;273427;1254;22402;-84
2023/06/05 20:40:53;;;;;;;11.40;5.90;;;;;;;18.97;53.21;99286.77;273388;1265;22192;-84
2023/06/05 20:46:57;;;;;;;12.30;5.10;;;;;;;18.89;53.51;99294.36;273532;1265;22421;-85
2023/06/05 20:52:59;;;;;;;13.00;4.60;;;;;;;18.85;53.34;99294.91;273324;1265;22393;-84
2023/06/05 20:59:01;;;;;;;13.00;4.40;;;;;;;18.81;53.21;99296.64;273995;1265;22350;-84
2023/06/05 21:05:05;;;;;;;7.50;4.10;;;;;;;18.80;52.78;99300.94;273962;1265;22205;-84
2023/06/05 21:11:07;;;;;;;7.20;4.20;;;;;;;18.78;52.61;99306.98;273922;1265;22427;-83
2023/06/05 21:17:16;;;;;;;7.40;4.30;;;;;;;18.73;52.62;99309.84;274014;1265;22190;-85
2023/06/05 21:23:43;;;;;;;8.50;4.80;;;;;;;18.69;52.65;99309.11;273885;1265;22425;-82
2023/06/05 21:29:44;;;;;;;10.40;4.70;;;;;;;18.62;52.85;99312.64;272831;1253;23731;-83
2023/06/05 21:36:30;;;;;;;11.00;5.40;;;;;;;18.54;52.98;99312.63;270927;1265;22565;-84
2023/06/05 21:43:42;;;;;;;10.60;4.20;;;;;;;18.43;53.32;99314.69;270081;1269;22583;-85
2023/06/05 21:49:44;;;;;;;10.20;4.40;;;;;;;18.33;53.66;99313.39;270178;1270;22533;-84
2023/06/05 21:56:08;;;;;;;10.60;4.50;;;;;;;18.23;53.64;99313.54;270088;1257;22762;-85
2023/06/05 22:02:24;;;;;;;9.00;4.60;;;;;;;18.14;53.82;99313.20;270111;1269;22209;-84
2023/06/05 22:08:26;;;;;;;8.30;3.90;;;;;;;18.07;53.91;99310.44;273388;1271;22522;-85
2023/06/05 22:14:30;;;;;;;6.50;3.50;;;;;;;18.03;53.86;99308.74;273995;1265;22469;-85
2023/06/05 22:20:31;;;;;;;6.30;2.90;;;;;;;18.01;54.01;99308.79;274079;1265;22283;-83
2023/06/05 22:26:34;;;;;;;7.60;3.40;;;;;;;17.97;54.10;99308.84;273961;1265;22397;-84
2023/06/05 22:32:36;;;;;;;6.30;3.10;;;;;;;17.93;54.08;99307.06;274083;1251;23713;-84
2023/06/05 22:39:01;;;;;;;6.00;2.80;;;;;;;17.89;54.14;99302.69;272230;1257;23877;-83
2023/06/05 22:45:04;;;;;;;5.40;2.90;;;;;;;17.84;54.27;99301.89;270290;1265;22644;-84
2023/06/05 22:51:06;;;;;;;4.80;2.40;;;;;;;17.78;54.37;99297.23;270755;1265;24407;-83
2023/06/05 22:57:48;;;;;;;7.80;2.40;;;;;;;17.68;54.62;99292.53;270385;1253;24299;-84
2023/06/05 23:03:56;;;;;;;3.40;2.10;;;;;;;17.59;54.84;99285.54;270192;1265;22538;-83
2023/06/05 23:09:57;;;;;;;5.80;2.50;;;;;;;17.53;55.35;99274.60;272774;1257;23203;-84
2023/06/05 23:16:00;;;;;;;4.70;2.30;;;;;;;17.49;56.07;99267.45;272343;1265;22655;-84
2023/06/05 23:22:02;;;;;;;6.20;2.80;;;;;;;17.43;56.50;99264.83;271159;1254;25361;-83
2023/06/05 23:28:10;;;;;;;4.90;2.60;;;;;;;17.38;56.57;99268.52;271570;1257;22521;-84
2023/06/05 23:34:12;;;;;;;6.20;2.70;;;;;;;17.28;56.25;99261.98;270260;1265;22529;-84
2023/06/05 23:40:55;;;;;;;4.90;2.60;;;;;;;17.19;56.34;99256.88;271847;1256;22428;-83
2023/06/05 23:46:57;;;;;;;3.80;2.10;;;;;;;17.14;56.64;99255.50;274045;1265;22380;-84
2023/06/05 23:52:58;;;;;;;5.30;2.60;;;;;;;17.09;56.68;99251.37;274103;1265;22407;-84
2023/06/05 23:59:03;;;;;;;4.90;2.50;;;;;;;17.01;56.88;99245.45;272441;1262;23276;-85
